sensor_id;sensor_type;location;lat;lon;timestamp;pressure;altitude;pressure_sealevel;temperature;humidity
37764;BME280;23602;51.084;7.090;2023-01-29T00:01:02;101574.47;;;-5.13;100.00
37764;BME280;23602;51.084;7.090;2023-01-29T00:03:32;101558.44;;;-5.24;100.00
37764;BME280;23602;51.084;7.090;2023-01-29T00:06:11;101560.69;;;-5.17;100.00
37764;BME280;23602;51.084;7.090;2023-01-29T00:08:40;101575.56;;;-5.00;100.00
37764;BME280;23602;51.084;7.090;2023-01-29T00:11:08;101581.81;;;-5.02;100.00
37764;BME280;23602;51.084;7.090;2023-01-29T00:13:53;101545.47;;;-5.27;100.00
37764;BME280;23602;51.084;7.090;2023-01-29T00:16:21;101542.78;;;-5.26;100.00
37764;BME280;23602;51.084;7.090;2023-01-29T00:18:49;101544.53;;;-5.26;100.00
37764;BME280;23602;51.084;7.090;2023-01-29T00:21:35;101549.34;;;-5.17;100.00
37764;BME280;23602;51.084;7.090;2023-01-29T00:24:01;101538.25;;;-5.22;100.00
37764;BME280;23602;51.084;7.090;2023-01-29T00:26:29;101531.38;;;-5.25;100.00
37764;BME280;23602;51.084;7.090;2023-01-29T00:28:55;101549.63;;;-5.23;100.00
37764;BME280;23602;51.084;7.090;2023-01-29T00:31:23;101568.16;;;-5.09;100.00
37764;BME280;23602;51.084;7.090;2023-01-29T00:33:51;101532.63;;;-5.32;100.00
37764;BME280;23602;51.084;7.090;2023-01-29T00:36:20;101526.38;;;-5.29;100.00
37764;BME280;23602;51.084;7.090;2023-01-29T00:38:56;101522.81;;;-5.28;100.00
37764;BME280;23602;51.084;7.090;2023-01-29T00:41:34;101517.19;;;-5.38;100.00
37764;BME280;23602;51.084;7.090;2023-01-29T00:44:21;101533.28;;;-5.28;100.00
37764;BME280;23602;51.084;7.090;2023-01-29T00:47:08;101529.81;;;-5.29;100.00
37764;BME280;23602;51.084;7.090;2023-01-29T00:49:52;101520.03;;;-5.42;100.00
37764;BME280;23602;51.084;7.090;2023-01-29T00:54:59;101510.47;;;-5.43;100.00
37764;BME280;23602;51.084;7.090;2023-01-29T00:57:27;101551.81;;;-5.14;100.00
37764;BME280;23602;51.084;7.090;2023-01-29T00:59:52;101548.72;;;-5.22;100.00
37764;BME280;23602;51.084;7.090;2023-01-29T01:02:18;101514.94;;;-5.45;100.00
37764;BME280;23602;51.084;7.090;2023-01-29T01:05:04;101521.56;;;-5.38;100.00
37764;BME280;23602;51.084;7.090;2023-01-29T01:07:33;101553.13;;;-5.23;100.00
37764;BME280;23602;51.084;7.090;2023-01-29T01:09:59;101545.63;;;-5.30;100.00
37764;BME280;23602;51.084;7.090;2023-01-29T01:12:43;101532.91;;;-5.38;100.00
37764;BME280;23602;51.084;7.090;2023-01-29T01:15:09;101543.47;;;-5.22;100.00
37764;BME280;23602;51.084;7.090;2023-01-29T01:17:37;101524.28;;;-5.40;100.00
37764;BME280;23602;51.084;7.090;2023-01-29T01:20:03;101532.00;;;-5.37;100.00
37764;BME280;23602;51.084;7.090;2023-01-29T01:22:28;101519.41;;;-5.47;100.00
37764;BME280;23602;51.084;7.090;2023-01-29T01:24:54;101525.06;;;-5.56;100.00
37764;BME280;23602;51.084;7.090;2023-01-29T01:27:24;101524.94;;;-5.53;100.00
37764;BME280;23602;51.084;7.090;2023-01-29T01:29:49;101540.69;;;-5.36;100.00
37764;BME280;23602;51.084;7.090;2023-01-29T01:32:21;101543.13;;;-5.50;100.00
37764;BME280;23602;51.084;7.090;2023-01-29T01:34:46;101544.03;;;-5.51;100.00
37764;BME280;23602;51.084;7.090;2023-01-29T01:37:17;101574.53;;;-5.32;100.00
37764;BME280;23602;51.084;7.090;2023-01-29T01:39:43;101541.72;;;-5.57;100.00
37764;BME280;23602;51.084;7.090;2023-01-29T01:42:52;101537.41;;;-5.58;100.00
37764;BME280;23602;51.084;7.090;2023-01-29T01:45:28;101536.34;;;-5.54;100.00
37764;BME280;23602;51.084;7.090;2023-01-29T01:48:16;101559.00;;;-5.36;100.00
37764;BME280;23602;51.084;7.090;2023-01-29T01:51:01;101513.91;;;-5.60;100.00
37764;BME280;23602;51.084;7.090;2023-01-29T01:53:37;101509.53;;;-5.59;100.00
37764;BME280;23602;51.084;7.090;2023-01-29T01:56:07;101500.13;;;-5.63;100.00
37764;BME280;23602;51.084;7.090;2023-01-29T01:58:48;101524.72;;;-5.49;100.00
37764;BME280;23602;51.084;7.090;2023-01-29T02:01:16;101498.97;;;-5.58;100.00
37764;BME280;23602;51.084;7.090;2023-01-29T02:04:09;101515.72;;;-5.43;100.00
37764;BME280;23602;51.084;7.090;2023-01-29T02:07:00;101515.84;;;-5.46;100.00
37764;BME280;23602;51.084;7.090;2023-01-29T02:09:55;101519.03;;;-5.57;100.00
37764;BME280;23602;51.084;7.090;2023-01-29T02:12:25;101495.19;;;-5.69;100.00
37764;BME280;23602;51.084;7.090;2023-01-29T02:14:53;101518.84;;;-5.54;100.00
37764;BME280;23602;51.084;7.090;2023-01-29T02:17:19;101512.06;;;-5.58;100.00
37764;BME280;23602;51.084;7.090;2023-01-29T02:28:30;101536.97;;;-5.49;100.00
37764;BME280;23602;51.084;7.090;2023-01-29T02:31:16;101504.09;;;-5.73;100.00
37764;BME280;23602;51.084;7.090;2023-01-29T02:34:16;101547.50;;;-5.51;100.00
37764;BME280;23602;51.084;7.090;2023-01-29T02:37:04;101516.06;;;-5.68;100.00
37764;BME280;23602;51.084;7.090;2023-01-29T02:45:33;101519.41;;;-5.83;100.00
37764;BME280;23602;51.084;7.090;2023-01-29T02:48:00;101528.75;;;-5.78;100.00
37764;BME280;23602;51.084;7.090;2023-01-29T02:50:55;101574.00;;;-5.57;100.00
37764;BME280;23602;51.084;7.090;2023-01-29T02:56:11;101544.00;;;-5.68;100.00
37764;BME280;23602;51.084;7.090;2023-01-29T02:59:07;101542.59;;;-5.76;100.00
37764;BME280;23602;51.084;7.090;2023-01-29T03:01:54;101566.53;;;-5.64;100.00
37764;BME280;23602;51.084;7.090;2023-01-29T03:04:29;101575.13;;;-5.62;100.00
37764;BME280;23602;51.084;7.090;2023-01-29T03:06:59;101594.78;;;-5.54;100.00
37764;BME280;23602;51.084;7.090;2023-01-29T03:09:40;101542.88;;;-5.82;100.00
37764;BME280;23602;51.084;7.090;2023-01-29T03:12:31;101547.19;;;-5.81;100.00
37764;BME280;23602;51.084;7.090;2023-01-29T03:15:09;101542.88;;;-5.82;100.00
37764;BME280;23602;51.084;7.090;2023-01-29T03:18:07;101535.19;;;-5.85;100.00
37764;BME280;23602;51.084;7.090;2023-01-29T03:20:40;101560.19;;;-5.79;100.00
37764;BME280;23602;51.084;7.090;2023-01-29T03:23:33;101565.22;;;-5.75;100.00
37764;BME280;23602;51.084;7.090;2023-01-29T03:26:20;101520.84;;;-5.95;100.00
37764;BME280;23602;51.084;7.090;2023-01-29T03:29:08;101559.56;;;-5.65;100.00
37764;BME280;23602;51.084;7.090;2023-01-29T03:31:54;101525.09;;;-5.92;100.00
37764;BME280;23602;51.084;7.090;2023-01-29T03:34:47;101511.22;;;-5.94;100.00
37764;BME280;23602;51.084;7.090;2023-01-29T03:37:41;101552.56;;;-5.65;100.00
37764;BME280;23602;51.084;7.090;2023-01-29T03:40:17;101520.69;;;-5.92;100.00
37764;BME280;23602;51.084;7.090;2023-01-29T03:45:37;101565.72;;;-5.66;100.00
37764;BME280;23602;51.084;7.090;2023-01-29T03:48:40;101562.97;;;-5.63;100.00
37764;BME280;23602;51.084;7.090;2023-01-29T03:51:24;101529.19;;;-5.87;100.00
37764;BME280;23602;51.084;7.090;2023-01-29T03:53:59;101551.50;;;-5.80;100.00
37764;BME280;23602;51.084;7.090;2023-01-29T04:02:10;101539.88;;;-5.91;100.00
37764;BME280;23602;51.084;7.090;2023-01-29T04:04:40;101548.06;;;-5.80;100.00
37764;BME280;23602;51.084;7.090;2023-01-29T04:07:32;101564.81;;;-5.65;100.00
37764;BME280;23602;51.084;7.090;2023-01-29T04:10:20;101549.88;;;-5.82;100.00
37764;BME280;23602;51.084;7.090;2023-01-29T04:13:01;101546.72;;;-5.89;100.00
37764;BME280;23602;51.084;7.090;2023-01-29T04:15:41;101567.38;;;-5.83;100.00
37764;BME280;23602;51.084;7.090;2023-01-29T04:18:18;101514.97;;;-6.00;100.00
37764;BME280;23602;51.084;7.090;2023-01-29T04:20:52;101532.88;;;-5.91;100.00
37764;BME280;23602;51.084;7.090;2023-01-29T04:23:25;101505.84;;;-6.10;100.00
37764;BME280;23602;51.084;7.090;2023-01-29T04:26:20;101532.66;;;-6.05;100.00
37764;BME280;23602;51.084;7.090;2023-01-29T04:29:09;101497.38;;;-6.15;100.00
37764;BME280;23602;51.084;7.090;2023-01-29T04:31:59;101495.34;;;-6.08;100.00
37764;BME280;23602;51.084;7.090;2023-01-29T04:38:04;101518.72;;;-5.87;100.00
37764;BME280;23602;51.084;7.090;2023-01-29T04:40:50;101542.59;;;-5.76;100.00
37764;BME280;23602;51.084;7.090;2023-01-29T04:43:25;101537.22;;;-5.72;100.00
37764;BME280;23602;51.084;7.090;2023-01-29T04:46:20;101516.41;;;-5.93;100.00
37764;BME280;23602;51.084;7.090;2023-01-29T04:51:46;101514.78;;;-5.95;100.00
37764;BME280;23602;51.084;7.090;2023-01-29T04:54:59;101540.03;;;-5.77;100.00
37764;BME280;23602;51.084;7.090;2023-01-29T04:57:35;101505.00;;;-5.92;100.00
37764;BME280;23602;51.084;7.090;2023-01-29T05:02:58;101518.28;;;-5.78;100.00
37764;BME280;23602;51.084;7.090;2023-01-29T05:05:24;101470.50;;;-6.00;100.00
37764;BME280;23602;51.084;7.090;2023-01-29T05:07:54;101476.44;;;-5.96;100.00
37764;BME280;23602;51.084;7.090;2023-01-29T05:10:22;101492.53;;;-5.87;100.00
37764;BME280;23602;51.084;7.090;2023-01-29T05:12:57;101491.06;;;-5.92;100.00
37764;BME280;23602;51.084;7.090;2023-01-29T05:15:29;101488.31;;;-5.89;100.00
37764;BME280;23602;51.084;7.090;2023-01-29T05:17:57;101518.19;;;-5.76;100.00
37764;BME280;23602;51.084;7.090;2023-01-29T05:20:29;101509.97;;;-5.68;100.00
37764;BME280;23602;51.084;7.090;2023-01-29T05:26:21;101469.94;;;-5.88;100.00
37764;BME280;23602;51.084;7.090;2023-01-29T05:29:09;101499.25;;;-5.64;100.00
37764;BME280;23602;51.084;7.090;2023-01-29T05:31:38;101467.13;;;-5.85;100.00
37764;BME280;23602;51.084;7.090;2023-01-29T05:34:25;101470.75;;;-5.87;100.00
37764;BME280;23602;51.084;7.090;2023-01-29T05:36:55;101456.75;;;-5.86;100.00
37764;BME280;23602;51.084;7.090;2023-01-29T05:39:21;101478.06;;;-5.77;100.00
37764;BME280;23602;51.084;7.090;2023-01-29T05:41:47;101479.69;;;-5.74;100.00
37764;BME280;23602;51.084;7.090;2023-01-29T05:44:22;101476.03;;;-5.70;100.00
37764;BME280;23602;51.084;7.090;2023-01-29T05:46:49;101462.50;;;-5.80;100.00
37764;BME280;23602;51.084;7.090;2023-01-29T05:49:17;101476.03;;;-5.70;100.00
37764;BME280;23602;51.084;7.090;2023-01-29T05:51:47;101504.22;;;-5.58;100.00
37764;BME280;23602;51.084;7.090;2023-01-29T05:54:15;101472.69;;;-5.73;100.00
37764;BME280;23602;51.084;7.090;2023-01-29T05:56:46;101486.97;;;-5.62;100.00
37764;BME280;23602;51.084;7.090;2023-01-29T05:59:21;101474.06;;;-5.66;100.00
37764;BME280;23602;51.084;7.090;2023-01-29T06:01:47;101463.78;;;-5.69;100.00
37764;BME280;23602;51.084;7.090;2023-01-29T06:04:20;101476.50;;;-5.62;100.00
37764;BME280;23602;51.084;7.090;2023-01-29T06:06:48;101482.56;;;-5.61;100.00
37764;BME280;23602;51.084;7.090;2023-01-29T06:09:16;101517.28;;;-5.39;100.00
37764;BME280;23602;51.084;7.090;2023-01-29T06:11:47;101471.78;;;-5.72;100.00
37764;BME280;23602;51.084;7.090;2023-01-29T06:14:15;101478.84;;;-5.75;100.00
37764;BME280;23602;51.084;7.090;2023-01-29T06:16:49;101515.22;;;-5.51;100.00
37764;BME280;23602;51.084;7.090;2023-01-29T06:19:20;101487.03;;;-5.63;100.00
37764;BME280;23602;51.084;7.090;2023-01-29T06:21:54;101487.75;;;-5.60;100.00
37764;BME280;23602;51.084;7.090;2023-01-29T06:24:19;101503.22;;;-5.55;100.00
37764;BME280;23602;51.084;7.090;2023-01-29T06:26:51;101501.81;;;-5.62;100.00
37764;BME280;23602;51.084;7.090;2023-01-29T06:29:21;101485.72;;;-5.72;100.00
37764;BME280;23602;51.084;7.090;2023-01-29T06:31:47;101519.03;;;-5.57;100.00
37764;BME280;23602;51.084;7.090;2023-01-29T06:34:17;101518.94;;;-5.55;100.00
37764;BME280;23602;51.084;7.090;2023-01-29T06:36:45;101519.06;;;-5.58;100.00
37764;BME280;23602;51.084;7.090;2023-01-29T06:39:16;101516.44;;;-5.58;100.00
37764;BME280;23602;51.084;7.090;2023-01-29T06:41:47;101542.22;;;-5.49;100.00
37764;BME280;23602;51.084;7.090;2023-01-29T06:44:12;101532.41;;;-5.63;100.00
37764;BME280;23602;51.084;7.090;2023-01-29T06:46:48;101554.50;;;-5.51;100.00
37764;BME280;23602;51.084;7.090;2023-01-29T06:49:17;101538.41;;;-5.61;100.00
37764;BME280;23602;51.084;7.090;2023-01-29T06:51:55;101571.78;;;-5.47;100.00
37764;BME280;23602;51.084;7.090;2023-01-29T06:54:20;101554.81;;;-5.57;100.00
37764;BME280;23602;51.084;7.090;2023-01-29T06:56:51;101559.06;;;-5.55;100.00
37764;BME280;23602;51.084;7.090;2023-01-29T06:59:19;101536.09;;;-5.67;100.00
37764;BME280;23602;51.084;7.090;2023-01-29T07:01:47;101544.34;;;-5.57;100.00
37764;BME280;23602;51.084;7.090;2023-01-29T07:04:15;101532.94;;;-5.56;100.00
37764;BME280;23602;51.084;7.090;2023-01-29T07:06:41;101542.28;;;-5.51;100.00
37764;BME280;23602;51.084;7.090;2023-01-29T07:09:18;101546.22;;;-5.42;100.00
37764;BME280;23602;51.084;7.090;2023-01-29T07:11:49;101534.81;;;-5.41;100.00
37764;BME280;23602;51.084;7.090;2023-01-29T07:14:17;101536.84;;;-5.29;100.00
37764;BME280;23602;51.084;7.090;2023-01-29T07:16:52;101566.94;;;-5.02;100.00
37764;BME280;23602;51.084;7.090;2023-01-29T07:19:19;101540.88;;;-5.05;100.00
37764;BME280;23602;51.084;7.090;2023-01-29T07:21:54;101529.09;;;-4.96;100.00
37764;BME280;23602;51.084;7.090;2023-01-29T07:24:22;101526.13;;;-4.90;100.00
37764;BME280;23602;51.084;7.090;2023-01-29T07:26:50;101551.28;;;-4.69;100.00
37764;BME280;23602;51.084;7.090;2023-01-29T07:29:18;101546.72;;;-4.66;100.00
37764;BME280;23602;51.084;7.090;2023-01-29T07:31:52;101522.78;;;-4.60;100.00
37764;BME280;23602;51.084;7.090;2023-01-29T07:34:17;101529.25;;;-4.50;100.00
37764;BME280;23602;51.084;7.090;2023-01-29T07:36:45;101544.88;;;-4.31;100.00
37764;BME280;23602;51.084;7.090;2023-01-29T07:39:22;101525.75;;;-4.33;100.00
37764;BME280;23602;51.084;7.090;2023-01-29T07:41:51;101518.66;;;-4.31;100.00
37764;BME280;23602;51.084;7.090;2023-01-29T07:44:24;101562.72;;;-4.05;100.00
37764;BME280;23602;51.084;7.090;2023-01-29T07:46:50;101550.38;;;-4.03;100.00
37764;BME280;23602;51.084;7.090;2023-01-29T07:49:17;101547.31;;;-3.95;100.00
37764;BME280;23602;51.084;7.090;2023-01-29T07:51:45;101536.41;;;-3.88;100.00
37764;BME280;23602;51.084;7.090;2023-01-29T07:54:15;101522.94;;;-3.81;100.00
37764;BME280;23602;51.084;7.090;2023-01-29T07:56:43;101525.22;;;-3.75;100.00
37764;BME280;23602;51.084;7.090;2023-01-29T07:59:10;101521.25;;;-3.67;100.00
37764;BME280;23602;51.084;7.090;2023-01-29T08:01:38;101497.59;;;-3.67;100.00
37764;BME280;23602;51.084;7.090;2023-01-29T08:04:04;101505.31;;;-3.64;100.00
37764;BME280;23602;51.084;7.090;2023-01-29T08:06:32;101510.63;;;-3.50;100.00
37764;BME280;23602;51.084;7.090;2023-01-29T08:08:57;101519.63;;;-3.38;100.00
37764;BME280;23602;51.084;7.090;2023-01-29T08:11:23;101521.69;;;-3.29;100.00
37764;BME280;23602;51.084;7.090;2023-01-29T08:13:49;101520.50;;;-3.24;100.00
37764;BME280;23602;51.084;7.090;2023-01-29T08:16:22;101481.88;;;-3.37;100.00
37764;BME280;23602;51.084;7.090;2023-01-29T08:19:00;101480.00;;;-3.35;100.00
37764;BME280;23602;51.084;7.090;2023-01-29T08:21:25;101498.16;;;-3.31;100.00
37764;BME280;23602;51.084;7.090;2023-01-29T08:23:53;101493.06;;;-3.34;100.00
37764;BME280;23602;51.084;7.090;2023-01-29T08:26:19;101502.50;;;-3.15;100.00
37764;BME280;23602;51.084;7.090;2023-01-29T08:28:47;101476.16;;;-3.30;100.00
37764;BME280;23602;51.084;7.090;2023-01-29T08:31:18;101492.91;;;-3.16;100.00
37764;BME280;23602;51.084;7.090;2023-01-29T08:33:52;101467.53;;;-3.32;100.00
37764;BME280;23602;51.084;7.090;2023-01-29T08:36:18;101465.38;;;-3.25;100.00
37764;BME280;23602;51.084;7.090;2023-01-29T08:38:49;101457.50;;;-3.25;100.00
37764;BME280;23602;51.084;7.090;2023-01-29T08:41:15;101469.25;;;-3.16;100.00
37764;BME280;23602;51.084;7.090;2023-01-29T08:43:40;101473.50;;;-3.00;100.00
37764;BME280;23602;51.084;7.090;2023-01-29T08:46:06;101467.50;;;-3.02;100.00
37764;BME280;23602;51.084;7.090;2023-01-29T08:48:35;101462.63;;;-3.08;100.00
37764;BME280;23602;51.084;7.090;2023-01-29T08:51:13;101459.44;;;-2.99;100.00
37764;BME280;23602;51.084;7.090;2023-01-29T08:53:56;101476.66;;;-2.79;100.00
37764;BME280;23602;51.084;7.090;2023-01-29T08:56:22;101456.19;;;-2.88;100.00
37764;BME280;23602;51.084;7.090;2023-01-29T08:58:48;101473.66;;;-2.73;100.00
37764;BME280;23602;51.084;7.090;2023-01-29T09:01:21;101448.50;;;-2.77;100.00
37764;BME280;23602;51.084;7.090;2023-01-29T09:03:47;101460.16;;;-2.67;100.00
37764;BME280;23602;51.084;7.090;2023-01-29T09:06:23;101453.75;;;-2.63;100.00
37764;BME280;23602;51.084;7.090;2023-01-29T09:08:54;101464.38;;;-2.50;100.00
37764;BME280;23602;51.084;7.090;2023-01-29T09:11:20;101448.50;;;-2.63;100.00
37764;BME280;23602;51.084;7.090;2023-01-29T09:13:46;101486.66;;;-2.42;100.00
37764;BME280;23602;51.084;7.090;2023-01-29T09:16:17;101473.50;;;-2.42;100.00
37764;BME280;23602;51.084;7.090;2023-01-29T09:18:48;101428.94;;;-2.59;100.00
37764;BME280;23602;51.084;7.090;2023-01-29T09:21:19;101438.31;;;-2.41;100.00
37764;BME280;23602;51.084;7.090;2023-01-29T09:24:00;101415.00;;;-2.33;100.00
37764;BME280;23602;51.084;7.090;2023-01-29T09:26:26;101420.81;;;-2.14;100.00
37764;BME280;23602;51.084;7.090;2023-01-29T09:28:55;101401.16;;;-2.22;100.00
37764;BME280;23602;51.084;7.090;2023-01-29T09:31:25;101395.56;;;-2.04;100.00
37764;BME280;23602;51.084;7.090;2023-01-29T09:33:53;101393.38;;;-1.97;100.00
37764;BME280;23602;51.084;7.090;2023-01-29T09:37:05;101398.75;;;-1.72;100.00
37764;BME280;23602;51.084;7.090;2023-01-29T09:39:34;101365.91;;;-1.80;100.00
37764;BME280;23602;51.084;7.090;2023-01-29T09:42:22;101361.53;;;-1.67;100.00
37764;BME280;23602;51.084;7.090;2023-01-29T09:45:19;101363.63;;;-1.72;100.00
37764;BME280;23602;51.084;7.090;2023-01-29T09:48:01;101375.16;;;-1.61;100.00
37764;BME280;23602;51.084;7.090;2023-01-29T09:53:42;101384.16;;;-1.38;100.00
37764;BME280;23602;51.084;7.090;2023-01-29T09:56:19;101342.59;;;-1.47;100.00
37764;BME280;23602;51.084;7.090;2023-01-29T09:58:56;101356.97;;;-1.39;100.00
37764;BME280;23602;51.084;7.090;2023-01-29T10:13:05;101348.41;;;-1.17;100.00
37764;BME280;23602;51.084;7.090;2023-01-29T10:22:06;101351.50;;;-1.10;100.00
37764;BME280;23602;51.084;7.090;2023-01-29T10:24:59;101350.53;;;-0.97;100.00
37764;BME280;23602;51.084;7.090;2023-01-29T10:27:32;101319.50;;;-1.06;100.00
37764;BME280;23602;51.084;7.090;2023-01-29T10:30:25;101354.94;;;-0.72;100.00
37764;BME280;23602;51.084;7.090;2023-01-29T10:33:00;101339.53;;;-0.78;100.00
37764;BME280;23602;51.084;7.090;2023-01-29T10:35:42;101351.06;;;-0.79;100.00
37764;BME280;23602;51.084;7.090;2023-01-29T10:38:34;101325.09;;;-0.98;100.00
37764;BME280;23602;51.084;7.090;2023-01-29T10:44:29;101352.66;;;-1.02;100.00
37764;BME280;23602;51.084;7.090;2023-01-29T10:50:27;101334.81;;;-1.11;100.00
37764;BME280;23602;51.084;7.090;2023-01-29T10:59:00;101289.44;;;-1.03;100.00
37764;BME280;23602;51.084;7.090;2023-01-29T11:01:29;101300.69;;;-0.89;100.00
37764;BME280;23602;51.084;7.090;2023-01-29T11:03:58;101308.06;;;-0.81;100.00
37764;BME280;23602;51.084;7.090;2023-01-29T11:06:39;101279.53;;;-1.00;100.00
37764;BME280;23602;51.084;7.090;2023-01-29T11:09:21;101299.19;;;-0.68;100.00
37764;BME280;23602;51.084;7.090;2023-01-29T11:11:57;101289.34;;;-0.66;100.00
37764;BME280;23602;51.084;7.090;2023-01-29T11:17:04;101283.84;;;-0.63;100.00
37764;BME280;23602;51.084;7.090;2023-01-29T11:19:44;101286.78;;;-0.54;100.00
37764;BME280;23602;51.084;7.090;2023-01-29T11:22:31;101275.84;;;-0.37;100.00
37764;BME280;23602;51.084;7.090;2023-01-29T11:25:23;101274.13;;;-0.26;100.00
37764;BME280;23602;51.084;7.090;2023-01-29T11:27:56;101236.13;;;-0.36;100.00
37764;BME280;23602;51.084;7.090;2023-01-29T11:30:34;101240.16;;;-0.19;100.00
37764;BME280;23602;51.084;7.090;2023-01-29T11:35:38;101259.34;;;0.07;100.00
37764;BME280;23602;51.084;7.090;2023-01-29T11:38:26;101255.84;;;0.06;100.00
37764;BME280;23602;51.084;7.090;2023-01-29T11:41:04;101229.38;;;-0.05;100.00
37764;BME280;23602;51.084;7.090;2023-01-29T11:43:33;101208.69;;;-0.22;100.00
37764;BME280;23602;51.084;7.090;2023-01-29T11:46:04;101214.59;;;-0.42;100.00
37764;BME280;23602;51.084;7.090;2023-01-29T11:48:51;101237.25;;;-0.27;100.00
37764;BME280;23602;51.084;7.090;2023-01-29T11:51:22;101218.88;;;-0.29;100.00
37764;BME280;23602;51.084;7.090;2023-01-29T11:53:55;101228.16;;;-0.23;100.00
37764;BME280;23602;51.084;7.090;2023-01-29T11:56:33;101218.56;;;-0.13;100.00
37764;BME280;23602;51.084;7.090;2023-01-29T12:02:02;101182.75;;;-0.17;100.00
37764;BME280;23602;51.084;7.090;2023-01-29T12:04:46;101176.91;;;-0.10;100.00
37764;BME280;23602;51.084;7.090;2023-01-29T12:07:18;101178.97;;;-0.02;100.00
37764;BME280;23602;51.084;7.090;2023-01-29T12:09:55;101179.22;;;0.06;100.00
37764;BME280;23602;51.084;7.090;2023-01-29T12:12:36;101209.66;;;0.34;100.00
37764;BME280;23602;51.084;7.090;2023-01-29T12:15:20;101169.63;;;0.16;100.00
37764;BME280;23602;51.084;7.090;2023-01-29T12:18:23;101166.28;;;0.25;100.00
37764;BME280;23602;51.084;7.090;2023-01-29T12:21:04;101149.81;;;0.22;100.00
37764;BME280;23602;51.084;7.090;2023-01-29T12:29:33;101129.88;;;0.07;100.00
37764;BME280;23602;51.084;7.090;2023-01-29T12:38:23;101136.25;;;0.15;100.00
37764;BME280;23602;51.084;7.090;2023-01-29T12:40:57;101116.66;;;0.29;100.00
37764;BME280;23602;51.084;7.090;2023-01-29T12:43:41;101077.25;;;0.26;100.00
37764;BME280;23602;51.084;7.090;2023-01-29T12:46:32;101096.81;;;0.56;100.00
37764;BME280;23602;51.084;7.090;2023-01-29T12:49:09;101060.53;;;0.47;100.00
37764;BME280;23602;51.084;7.090;2023-01-29T12:51:48;101059.78;;;0.56;100.00
37764;BME280;23602;51.084;7.090;2023-01-29T12:54:26;101083.19;;;0.72;100.00
37764;BME280;23602;51.084;7.090;2023-01-29T12:57:01;101079.00;;;0.70;100.00
37764;BME280;23602;51.084;7.090;2023-01-29T13:00:02;101084.75;;;0.75;100.00
37764;BME280;23602;51.084;7.090;2023-01-29T13:05:28;101037.13;;;0.32;100.00
37764;BME280;23602;51.084;7.090;2023-01-29T13:10:57;101034.66;;;0.51;100.00
37764;BME280;23602;51.084;7.090;2023-01-29T13:13:49;101064.44;;;0.75;100.00
37764;BME280;23602;51.084;7.090;2023-01-29T13:16:22;101059.84;;;0.77;100.00
37764;BME280;23602;51.084;7.090;2023-01-29T13:19:01;101044.69;;;0.79;100.00
37764;BME280;23602;51.084;7.090;2023-01-29T13:21:39;101045.53;;;0.80;100.00
37764;BME280;23602;51.084;7.090;2023-01-29T13:24:26;101014.47;;;0.61;100.00
37764;BME280;23602;51.084;7.090;2023-01-29T13:27:06;101003.53;;;0.54;100.00
37764;BME280;23602;51.084;7.090;2023-01-29T13:29:41;101005.97;;;0.46;100.00
37764;BME280;23602;51.084;7.090;2023-01-29T13:32:10;101006.19;;;0.54;100.00
37764;BME280;23602;51.084;7.090;2023-01-29T13:34:50;101006.66;;;0.59;100.00
37764;BME280;23602;51.084;7.090;2023-01-29T13:37:39;101019.59;;;0.74;100.00
37764;BME280;23602;51.084;7.090;2023-01-29T13:40:06;101009.28;;;0.59;100.00
37764;BME280;23602;51.084;7.090;2023-01-29T13:43:02;101022.97;;;0.64;100.00
37764;BME280;23602;51.084;7.090;2023-01-29T13:45:40;100990.34;;;0.43;100.00
37764;BME280;23602;51.084;7.090;2023-01-29T13:48:26;101003.22;;;0.48;100.00
37764;BME280;23602;51.084;7.090;2023-01-29T13:50:54;101018.94;;;0.49;100.00
37764;BME280;23602;51.084;7.090;2023-01-29T13:53:24;101016.75;;;0.54;100.00
37764;BME280;23602;51.084;7.090;2023-01-29T13:55:51;100997.69;;;0.40;100.00
37764;BME280;23602;51.084;7.090;2023-01-29T14:00:59;101020.84;;;0.58;100.00
37764;BME280;23602;51.084;7.090;2023-01-29T14:06:01;100992.78;;;0.35;100.00
37764;BME280;23602;51.084;7.090;2023-01-29T14:13:54;101006.47;;;0.40;100.00
37764;BME280;23602;51.084;7.090;2023-01-29T14:19:05;100995.44;;;0.35;100.00
37764;BME280;23602;51.084;7.090;2023-01-29T14:21:35;100992.78;;;0.35;100.00
37764;BME280;23602;51.084;7.090;2023-01-29T14:24:20;100990.47;;;0.31;100.00
37764;BME280;23602;51.084;7.090;2023-01-29T14:27:04;100991.38;;;0.20;100.00
37764;BME280;23602;51.084;7.090;2023-01-29T14:29:34;101017.53;;;0.34;100.00
37764;BME280;23602;51.084;7.090;2023-01-29T14:32:22;100995.69;;;0.21;100.00
37764;BME280;23602;51.084;7.090;2023-01-29T14:35:09;100992.66;;;0.26;100.00
37764;BME280;23602;51.084;7.090;2023-01-29T14:37:45;101022.06;;;0.43;100.00
37764;BME280;23602;51.084;7.090;2023-01-29T14:49:02;101018.00;;;0.39;100.00
37764;BME280;23602;51.084;7.090;2023-01-29T14:51:37;101011.63;;;0.31;100.00
37764;BME280;23602;51.084;7.090;2023-01-29T14:54:31;101003.00;;;0.29;100.00
37764;BME280;23602;51.084;7.090;2023-01-29T14:57:03;100999.03;;;0.23;100.00
37764;BME280;23602;51.084;7.090;2023-01-29T14:59:42;101039.75;;;0.43;100.00
37764;BME280;23602;51.084;7.090;2023-01-29T15:02:18;101036.25;;;0.42;100.00
37764;BME280;23602;51.084;7.090;2023-01-29T15:04:56;100994.00;;;0.20;100.00
37764;BME280;23602;51.084;7.090;2023-01-29T15:07:32;101031.34;;;0.38;100.00
37764;BME280;23602;51.084;7.090;2023-01-29T15:10:16;101019.00;;;0.27;100.00
37764;BME280;23602;51.084;7.090;2023-01-29T15:13:06;101013.94;;;0.24;100.00
37764;BME280;23602;51.084;7.090;2023-01-29T15:15:35;101026.41;;;0.33;100.00
37764;BME280;23602;51.084;7.090;2023-01-29T15:24:02;101026.91;;;0.27;100.00
37764;BME280;23602;51.084;7.090;2023-01-29T15:33:31;101029.09;;;0.22;100.00
37764;BME280;23602;51.084;7.090;2023-01-29T15:36:19;101013.94;;;0.13;100.00
37764;BME280;23602;51.084;7.090;2023-01-29T15:45:31;100985.63;;;-0.07;100.00
37764;BME280;23602;51.084;7.090;2023-01-29T15:48:41;100990.06;;;-0.08;100.00